createdAt,value
2019-05-13T00:00:34.021Z,7.24
2019-05-13T00:03:03.372Z,7.33
2019-05-13T00:05:30.205Z,7.36
2019-05-13T00:07:57.406Z,7.35
2019-05-13T00:10:24.537Z,7.45
2019-05-13T00:12:53.953Z,7.51
2019-05-13T00:15:20.756Z,7.57
2019-05-13T00:17:47.840Z,7.57
2019-05-13T00:20:16.221Z,7.65
2019-05-13T00:22:44.686Z,7.70
2019-05-13T00:25:14.401Z,7.72
2019-05-13T00:27:41.221Z,7.77
2019-05-13T00:30:09.422Z,7.72
2019-05-13T00:32:36.570Z,7.70
2019-05-13T00:35:04.056Z,7.60
2019-05-13T00:37:33.328Z,7.58
2019-05-13T00:40:00.215Z,7.55
2019-05-13T00:42:27.303Z,7.50
2019-05-13T00:44:54.403Z,7.42
2019-05-13T00:47:23.552Z,7.37
2019-05-13T00:49:50.580Z,7.32
2019-05-13T00:52:17.708Z,7.36
2019-05-13T00:54:44.846Z,7.33
2019-05-13T00:57:13.364Z,7.37
2019-05-13T00:59:44.128Z,7.39
2019-05-13T01:02:10.551Z,7.30
2019-05-13T01:04:37.639Z,7.31
2019-05-13T01:07:04.808Z,7.31
2019-05-13T01:09:34.038Z,7.33
2019-05-13T01:12:00.955Z,7.26
2019-05-13T01:14:28.139Z,7.21
2019-05-13T01:16:55.234Z,7.27
2019-05-13T01:19:23.717Z,7.18
2019-05-13T01:21:53.845Z,7.18
2019-05-13T01:24:20.486Z,7.22
2019-05-13T01:26:47.654Z,7.14
2019-05-13T01:29:14.761Z,7.09
2019-05-13T01:31:43.481Z,7.17
2019-05-13T01:34:10.838Z,7.13
2019-05-13T01:36:38.349Z,7.06
2019-05-13T01:39:06.583Z,7.01
2019-05-13T01:41:33.704Z,7.04
2019-05-13T01:44:00.792Z,7.04
2019-05-13T01:46:27.865Z,7.09
2019-05-13T01:48:55.334Z,6.98
2019-05-13T01:51:23.948Z,7.01
2019-05-13T01:53:53.428Z,6.99
2019-05-13T01:56:20.294Z,6.99
2019-05-13T01:58:47.817Z,6.96
2019-05-13T02:01:15.064Z,6.81
2019-05-13T02:03:44.264Z,6.77
2019-05-13T02:06:11.199Z,6.68
2019-05-13T02:08:38.320Z,6.75
2019-05-13T02:11:05.421Z,6.76
2019-05-13T02:13:34.389Z,6.79
2019-05-13T02:16:03.917Z,6.72
2019-05-13T02:18:30.834Z,6.64
2019-05-13T02:20:57.950Z,6.64
2019-05-13T02:23:25.039Z,6.64
2019-05-13T02:25:54.337Z,6.54
2019-05-13T02:28:21.190Z,6.53
2019-05-13T02:30:48.370Z,6.59
2019-05-13T02:33:15.857Z,6.57
2019-05-13T02:35:43.558Z,6.46
2019-05-13T02:38:19.878Z,6.42
2019-05-13T02:40:43.179Z,6.39
2019-05-13T02:43:13.581Z,6.36
2019-05-13T02:45:42.781Z,6.39
2019-05-13T02:48:12.493Z,6.23
2019-05-13T02:50:38.077Z,6.34
2019-05-13T02:53:05.283Z,6.37
2019-05-13T02:55:33.073Z,6.38
2019-05-13T02:58:03.304Z,6.29
2019-05-13T03:00:32.647Z,6.30
2019-05-13T03:02:58.453Z,6.22
2019-05-13T03:05:25.528Z,6.28
2019-05-13T03:07:53.239Z,6.26
2019-05-13T03:10:22.403Z,6.23
2019-05-13T03:12:53.193Z,6.15
2019-05-13T03:15:18.639Z,6.25
2019-05-13T03:18:05.663Z,6.13
2019-05-13T03:20:34.552Z,6.12
2019-05-13T03:23:03.112Z,6.11
2019-05-13T03:25:38.837Z,6.12
2019-05-13T03:28:06.027Z,6.11
2019-05-13T03:30:35.468Z,6.02
2019-05-13T03:33:10.380Z,6.02
2019-05-13T03:35:36.682Z,6.03
2019-05-13T03:38:03.438Z,5.94
2019-05-13T03:40:33.010Z,5.93
2019-05-13T03:43:02.775Z,5.94
2019-05-13T03:45:32.709Z,5.91
2019-05-13T03:48:03.673Z,5.95
2019-05-13T03:50:33.405Z,5.87
2019-05-13T03:53:02.643Z,5.94
2019-05-13T03:55:27.997Z,5.83
2019-05-13T03:57:55.317Z,5.90
2019-05-13T04:00:23.542Z,5.93
2019-05-13T04:02:52.238Z,5.89
2019-05-13T04:05:22.843Z,5.94
2019-05-13T04:07:52.013Z,5.96
2019-05-13T04:10:18.785Z,5.94
2019-05-13T04:12:45.897Z,5.91
2019-05-13T04:15:13.093Z,5.96
2019-05-13T04:17:42.796Z,5.98
2019-05-13T04:20:12.340Z,6.03
2019-05-13T04:22:38.276Z,6.05
2019-05-13T04:25:05.664Z,6.02
2019-05-13T04:27:32.988Z,6.03
2019-05-13T04:30:03.475Z,6.11
2019-05-13T04:32:33.343Z,6.12
2019-05-13T04:34:58.908Z,6.11
2019-05-13T04:37:26.002Z,6.09
2019-05-13T04:39:56.306Z,6.18
2019-05-13T04:42:23.110Z,6.24
2019-05-13T04:44:53.235Z,6.22
2019-05-13T04:47:22.681Z,6.25
2019-05-13T04:49:48.841Z,6.29
2019-05-13T04:52:22.286Z,6.37
2019-05-13T04:54:48.670Z,6.48
2019-05-13T04:57:15.935Z,6.44
2019-05-13T04:59:44.507Z,6.60
2019-05-13T05:02:49.029Z,6.66
2019-05-13T05:05:36.856Z,6.75
2019-05-13T05:08:55.245Z,6.92
2019-05-13T05:12:09.350Z,6.94
2019-05-13T05:15:14.541Z,7.01
2019-05-13T05:18:12.870Z,7.05
2019-05-13T05:21:14.698Z,7.12
2019-05-13T05:24:32.431Z,7.22
2019-05-13T05:27:42.085Z,7.30
2019-05-13T05:30:41.728Z,7.38
2019-05-13T05:33:51.864Z,7.51
2019-05-13T05:36:52.048Z,7.69
2019-05-13T05:39:22.785Z,7.80
2019-05-13T05:41:53.061Z,7.78
2019-05-13T05:44:21.947Z,7.96
2019-05-13T05:46:51.427Z,8.08
2019-05-13T05:49:23.700Z,8.12
2019-05-13T05:51:51.585Z,8.27
2019-05-13T05:54:21.817Z,8.41
2019-05-13T05:56:51.938Z,8.28
2019-05-13T05:59:21.923Z,8.39
2019-05-13T06:01:52.623Z,8.52
2019-05-13T06:04:21.769Z,8.56
2019-05-13T06:06:52.074Z,8.63
2019-05-13T06:09:18.530Z,8.73
2019-05-13T06:11:45.599Z,8.85
2019-05-13T06:14:13.808Z,8.76
2019-05-13T06:16:42.549Z,8.86
2019-05-13T06:19:12.131Z,8.96
2019-05-13T06:21:39.061Z,9.08
2019-05-13T06:24:06.129Z,9.13
2019-05-13T06:26:33.352Z,9.23
2019-05-13T06:29:02.699Z,9.39
2019-05-13T06:31:32.079Z,9.54
2019-05-13T06:33:59.132Z,9.72
2019-05-13T06:36:26.227Z,9.92
2019-05-13T06:38:53.717Z,9.92
2019-05-13T06:41:22.002Z,9.90
2019-05-13T06:43:49.662Z,10.07
2019-05-13T06:46:17.080Z,10.21
2019-05-13T06:48:44.300Z,10.30
2019-05-13T06:51:11.674Z,10.48
2019-05-13T06:53:42.461Z,10.59
2019-05-13T06:56:12.116Z,10.79
2019-05-13T06:58:41.355Z,10.80
2019-05-13T07:01:14.526Z,11.00
2019-05-13T07:03:42.136Z,11.17
2019-05-13T07:06:12.168Z,11.27
2019-05-13T07:08:38.722Z,11.46
2019-05-13T07:11:17.775Z,11.74
2019-05-13T07:13:36.033Z,11.88
2019-05-13T07:16:03.527Z,11.95
2019-05-13T07:18:32.373Z,11.96
2019-05-13T07:21:02.250Z,12.27
2019-05-13T07:23:31.648Z,12.46
2019-05-13T07:25:58.033Z,12.47
2019-05-13T07:28:25.661Z,12.65
2019-05-13T07:30:52.935Z,12.79
2019-05-13T07:33:21.387Z,12.77
2019-05-13T07:35:49.099Z,12.78
2019-05-13T07:38:16.813Z,12.83
2019-05-13T07:40:43.988Z,13.18
2019-05-13T07:43:12.275Z,13.12
2019-05-13T07:45:42.080Z,13.39
2019-05-13T07:48:20.664Z,13.48
2019-05-13T07:50:51.519Z,13.65
2019-05-13T07:53:06.958Z,13.80
2019-05-13T07:55:34.105Z,14.03
2019-05-13T07:58:02.132Z,14.24
2019-05-13T08:00:29.384Z,14.31
2019-05-13T08:02:56.484Z,14.02
2019-05-13T08:05:23.562Z,14.15
2019-05-13T08:07:51.481Z,14.04
2019-05-13T08:10:21.763Z,14.37
2019-05-13T08:12:48.576Z,14.26
2019-05-13T08:15:15.839Z,14.58
2019-05-13T08:17:47.298Z,14.54
2019-05-13T08:20:13.251Z,14.32
2019-05-13T08:22:42.440Z,14.01
2019-05-13T08:25:09.474Z,14.02
2019-05-13T08:27:36.939Z,14.05
2019-05-13T08:30:04.639Z,14.27
2019-05-13T08:32:31.848Z,14.70
2019-05-13T08:35:06.976Z,14.74
2019-05-13T08:37:27.885Z,15.24
2019-05-13T08:39:55.011Z,15.85
2019-05-13T08:42:23.842Z,15.74
2019-05-13T08:44:52.341Z,14.68
2019-05-13T08:47:22.436Z,14.44
2019-05-13T08:49:49.176Z,14.83
2019-05-13T08:52:17.142Z,14.78
2019-05-13T08:54:44.260Z,14.99
2019-05-13T08:57:11.958Z,15.44
2019-05-13T08:59:41.548Z,15.36
2019-05-13T09:02:08.675Z,15.61
2019-05-13T09:04:35.785Z,15.92
2019-05-13T09:07:02.958Z,15.91
2019-05-13T09:09:31.379Z,16.09
2019-05-13T09:11:59.237Z,16.25
2019-05-13T09:14:26.322Z,16.71
2019-05-13T09:16:53.724Z,16.55
2019-05-13T09:19:21.577Z,15.79
2019-05-13T09:21:48.799Z,15.55
2019-05-13T09:24:25.475Z,15.27
2019-05-13T09:26:45.147Z,15.66
2019-05-13T09:29:12.276Z,16.04
2019-05-13T09:31:41.570Z,15.46
2019-05-13T09:34:08.356Z,15.36
2019-05-13T09:36:35.494Z,15.26
2019-05-13T09:39:05.189Z,15.82
2019-05-13T09:41:38.568Z,16.10
2019-05-13T09:44:02.195Z,17.00
2019-05-13T09:46:31.648Z,17.68
2019-05-13T09:49:11.743Z,16.86
2019-05-13T09:51:27.593Z,16.22
2019-05-13T09:53:54.695Z,16.23
2019-05-13T09:56:22.460Z,16.09
2019-05-13T09:58:51.344Z,15.75
2019-05-13T10:01:19.041Z,16.22
2019-05-13T10:03:54.735Z,16.95
2019-05-13T10:06:15.541Z,17.53
2019-05-13T10:08:42.577Z,17.47
2019-05-13T10:11:12.340Z,18.30
2019-05-13T10:13:39.179Z,18.09
2019-05-13T10:16:06.268Z,17.36
2019-05-13T10:18:33.425Z,17.68
2019-05-13T10:21:01.432Z,18.22
2019-05-13T10:23:29.105Z,18.30
2019-05-13T10:25:59.113Z,18.12
2019-05-13T10:28:26.705Z,17.83
2019-05-13T10:30:54.690Z,18.08
2019-05-13T10:33:22.329Z,19.19
2019-05-13T10:35:52.399Z,18.58
2019-05-13T10:38:22.731Z,17.96
2019-05-13T10:40:51.915Z,17.71
2019-05-13T10:43:31.132Z,16.81
2019-05-13T10:45:48.213Z,16.80
2019-05-13T10:48:15.353Z,16.66
2019-05-13T10:50:42.916Z,16.18
2019-05-13T10:53:12.218Z,16.62
2019-05-13T10:55:38.974Z,17.19
2019-05-13T10:58:06.091Z,17.51
2019-05-13T11:00:42.390Z,17.28
2019-05-13T11:03:11.769Z,18.58
2019-05-13T11:05:42.094Z,18.83
2019-05-13T11:08:08.246Z,18.30
2019-05-13T11:10:35.715Z,18.15
2019-05-13T11:13:06.179Z,18.72
2019-05-13T11:15:40.370Z,19.20
2019-05-13T11:18:03.090Z,19.93
2019-05-13T11:20:32.423Z,20.44
2019-05-13T11:22:59.390Z,20.64
2019-05-13T11:25:26.447Z,20.05
2019-05-13T11:27:58.362Z,18.89
2019-05-13T11:30:23.293Z,17.80
2019-05-13T11:32:51.604Z,18.24
2019-05-13T11:35:18.994Z,19.45
2019-05-13T11:37:46.103Z,18.79
2019-05-13T11:40:13.250Z,17.99
2019-05-13T11:42:42.230Z,17.93
2019-05-13T11:45:11.686Z,18.07
2019-05-13T11:47:40.922Z,18.58
2019-05-13T11:50:07.980Z,19.44
2019-05-13T11:52:35.352Z,18.72
2019-05-13T11:55:03.089Z,18.38
2019-05-13T11:57:33.867Z,18.13
2019-05-13T12:00:02.547Z,17.63
2019-05-13T12:02:32.719Z,17.02
2019-05-13T12:05:03.149Z,16.57
2019-05-13T12:07:28.418Z,16.91
2019-05-13T12:09:55.729Z,16.91
2019-05-13T12:12:30.157Z,17.34
2019-05-13T12:15:20.266Z,17.61
2019-05-13T12:17:22.503Z,17.44
2019-05-13T12:19:49.895Z,17.70
2019-05-13T12:22:16.959Z,17.84
2019-05-13T12:24:45.263Z,17.94
2019-05-13T12:27:15.411Z,18.19
2019-05-13T12:29:43.299Z,18.15
2019-05-13T12:32:13.541Z,17.81
2019-05-13T12:34:45.001Z,17.85
2019-05-13T12:37:12.030Z,17.94
2019-05-13T12:39:39.022Z,18.43
2019-05-13T12:42:06.128Z,18.42
2019-05-13T12:44:33.922Z,18.52
2019-05-13T12:47:03.348Z,18.27
2019-05-13T12:49:33.535Z,18.40
2019-05-13T12:52:03.551Z,18.48
2019-05-13T12:54:28.358Z,18.61
2019-05-13T12:56:55.508Z,18.99
2019-05-13T12:59:22.568Z,18.98
2019-05-13T13:01:51.898Z,18.68
2019-05-13T13:04:19.003Z,17.91
2019-05-13T13:06:46.048Z,17.91
2019-05-13T13:09:13.307Z,17.79
2019-05-13T13:11:43.771Z,17.58
2019-05-13T13:14:14.092Z,17.27
2019-05-13T13:16:38.294Z,16.97
2019-05-13T13:19:06.220Z,16.78
2019-05-13T13:21:37.498Z,17.22
2019-05-13T13:24:04.542Z,17.48
2019-05-13T13:26:33.514Z,18.06
2019-05-13T13:29:00.976Z,18.44
2019-05-13T13:31:28.518Z,17.81
2019-05-13T13:33:56.015Z,18.06
2019-05-13T13:36:24.137Z,17.93
2019-05-13T13:38:56.106Z,17.61
2019-05-13T13:41:22.914Z,17.98
2019-05-13T13:43:53.828Z,17.89
2019-05-13T13:46:33.828Z,18.17
2019-05-13T13:48:48.560Z,18.53
2019-05-13T13:51:15.727Z,18.89
2019-05-13T13:53:44.581Z,19.02
2019-05-13T13:56:14.508Z,18.93
2019-05-13T13:58:43.873Z,18.62
2019-05-13T14:01:17.613Z,18.34
2019-05-13T14:03:45.631Z,17.90
2019-05-13T14:06:08.322Z,18.09
2019-05-13T14:08:35.491Z,18.35
2019-05-13T14:11:05.304Z,18.59
2019-05-13T14:13:33.496Z,18.65
2019-05-13T14:16:01.841Z,19.22
2019-05-13T14:18:31.727Z,19.15
2019-05-13T14:20:59.953Z,18.77
2019-05-13T14:23:27.061Z,19.15
2019-05-13T14:25:55.597Z,19.17
2019-05-13T14:28:26.205Z,18.71
2019-05-13T14:30:53.282Z,18.70
2019-05-13T14:36:48.944Z,17.88
2019-05-13T14:39:16.455Z,18.00
2019-05-13T14:41:45.575Z,17.60
2019-05-13T14:44:14.623Z,17.39
2019-05-13T14:46:47.710Z,16.98
2019-05-13T14:49:12.391Z,16.72
2019-05-13T14:51:41.487Z,17.03
2019-05-13T14:54:08.687Z,17.03
2019-05-13T14:56:35.789Z,16.73
2019-05-13T14:59:03.571Z,17.32
2019-05-13T15:01:31.903Z,17.61
2019-05-13T15:03:59.270Z,18.12
2019-05-13T15:06:26.389Z,18.55
2019-05-13T15:08:53.849Z,19.20
2019-05-13T15:11:21.939Z,19.31
2019-05-13T15:13:51.205Z,19.18
2019-05-13T15:16:18.844Z,18.44
2019-05-13T15:18:46.259Z,18.03
2019-05-13T15:21:13.341Z,17.63
2019-05-13T15:23:42.323Z,17.34
2019-05-13T15:26:11.689Z,17.13
2019-05-13T15:28:39.065Z,16.74
2019-05-13T15:31:07.005Z,16.60
2019-05-13T15:33:34.464Z,16.60
2019-05-13T15:36:02.409Z,16.39
2019-05-13T15:38:32.086Z,16.08
2019-05-13T15:41:01.196Z,16.25
2019-05-13T15:43:28.382Z,16.15
2019-05-13T15:45:56.123Z,16.17
2019-05-13T15:48:23.274Z,16.18
2019-05-13T15:50:56.513Z,16.19
2019-05-13T15:53:27.958Z,16.16
2019-05-13T15:55:55.097Z,15.88
2019-05-13T15:58:38.049Z,16.02
2019-05-13T16:01:03.114Z,16.14
2019-05-13T16:03:36.997Z,16.51
2019-05-13T16:06:07.614Z,17.04
2019-05-13T16:08:37.777Z,17.34
2019-05-13T16:11:05.262Z,17.50
2019-05-13T16:13:35.669Z,17.33
2019-05-13T16:16:12.417Z,17.14
2019-05-13T16:46:37.916Z,16.16
2019-05-13T16:49:04.692Z,15.98
2019-05-13T16:51:31.797Z,15.94
2019-05-13T16:53:59.006Z,15.73
2019-05-13T16:56:30.214Z,15.67
2019-05-13T16:58:54.767Z,15.37
2019-05-13T17:01:22.116Z,15.38
2019-05-13T17:03:51.177Z,15.35
2019-05-13T17:06:17.898Z,15.27
2019-05-13T17:08:44.651Z,14.90
2019-05-13T17:11:11.946Z,14.56
2019-05-13T17:13:39.375Z,14.39
2019-05-13T17:16:06.189Z,14.15
2019-05-13T17:18:33.085Z,14.05
2019-05-13T17:21:01.429Z,14.09
2019-05-13T17:23:28.409Z,14.04
2019-05-13T17:25:55.266Z,14.15
2019-05-13T17:28:22.080Z,14.24
2019-05-13T17:30:48.807Z,14.22
2019-05-13T17:33:15.655Z,14.05
2019-05-13T17:35:42.806Z,13.69
2019-05-13T17:38:11.369Z,13.88
2019-05-13T17:40:38.361Z,13.95
2019-05-13T17:43:05.579Z,13.96
2019-05-13T17:45:32.345Z,13.89
2019-05-13T17:48:01.087Z,13.87
2019-05-13T17:50:28.024Z,13.72
2019-05-13T17:52:54.996Z,13.79
2019-05-13T17:55:22.407Z,13.66
2019-05-13T17:57:49.308Z,13.81
2019-05-13T18:00:16.982Z,13.73
2019-05-13T18:02:43.715Z,13.68
2019-05-13T18:05:12.105Z,13.58
2019-05-13T18:07:39.257Z,13.58
2019-05-13T18:10:06.317Z,13.49
2019-05-13T18:12:33.262Z,13.44
2019-05-13T18:15:02.281Z,13.44
2019-05-13T18:17:31.063Z,13.31
2019-05-13T18:19:57.989Z,13.24
2019-05-13T18:22:24.739Z,13.10
2019-05-13T18:24:52.003Z,12.97
2019-05-13T18:27:18.869Z,12.74
2019-05-13T18:29:45.659Z,12.59
2019-05-13T18:32:12.610Z,12.41
2019-05-13T18:34:45.309Z,12.24
2019-05-13T18:37:12.106Z,12.07
2019-05-13T18:39:41.657Z,11.86
2019-05-13T18:42:08.259Z,11.68
2019-05-13T18:44:35.791Z,11.54
2019-05-13T18:47:03.064Z,11.38
2019-05-13T18:49:31.895Z,11.24
2019-05-13T18:51:59.011Z,11.11
2019-05-13T18:54:25.767Z,11.00
2019-05-13T18:56:52.673Z,10.91
2019-05-13T18:59:21.464Z,10.83
2019-05-13T19:01:48.322Z,10.78
2019-05-13T19:04:15.776Z,10.73
2019-05-13T19:06:43.922Z,10.64
2019-05-13T19:09:12.506Z,10.57
2019-05-13T19:11:39.581Z,10.49
2019-05-13T19:14:08.486Z,10.44
2019-05-13T19:16:36.012Z,10.42
2019-05-13T19:19:12.306Z,10.60
2019-05-13T19:21:31.977Z,10.70
2019-05-13T19:23:58.995Z,10.79
2019-05-13T19:26:25.786Z,10.88
2019-05-13T19:28:52.526Z,10.93
2019-05-13T19:31:22.050Z,10.96
2019-05-13T19:33:49.006Z,11.01
2019-05-13T19:36:15.767Z,10.94
2019-05-13T19:38:42.694Z,10.94
2019-05-13T19:41:11.625Z,10.87
2019-05-13T19:43:38.403Z,10.82
2019-05-13T19:46:05.281Z,10.77
2019-05-13T19:48:32.933Z,10.67
2019-05-13T19:51:01.555Z,10.62
2019-05-13T19:53:29.035Z,10.56
2019-05-13T19:55:56.241Z,10.50
2019-05-13T19:58:25.229Z,10.44
2019-05-13T20:00:52.595Z,10.34
2019-05-13T20:03:19.379Z,10.24
2019-05-13T20:05:46.327Z,10.11
2019-05-13T20:08:14.656Z,10.06
2019-05-13T20:10:42.277Z,9.98
2019-05-13T20:13:11.109Z,9.91
2019-05-13T20:15:37.935Z,9.78
2019-05-13T20:18:04.580Z,9.69
2019-05-13T20:20:31.763Z,9.57
2019-05-13T20:23:01.247Z,9.44
2019-05-13T20:25:27.629Z,9.28
2019-05-13T20:27:54.430Z,9.15
2019-05-13T20:30:21.951Z,9.02
2019-05-13T20:32:51.340Z,8.91
2019-05-13T20:35:18.044Z,8.83
2019-05-13T20:37:44.802Z,8.72
2019-05-13T20:40:11.731Z,8.57
2019-05-13T20:42:38.454Z,8.42
2019-05-13T20:45:05.215Z,8.31
2019-05-13T20:47:33.429Z,8.19
2019-05-13T20:50:02.378Z,8.11
2019-05-13T20:52:31.429Z,8.04
2019-05-13T20:54:58.230Z,7.97
2019-05-13T20:57:26.091Z,7.93
2019-05-13T20:59:53.177Z,7.88
2019-05-13T21:02:22.141Z,7.83
2019-05-13T21:04:48.766Z,7.74
2019-05-13T21:07:15.790Z,7.71
2019-05-13T21:09:42.576Z,7.64
2019-05-13T21:12:11.873Z,7.58
2019-05-13T21:14:38.653Z,7.56
2019-05-13T21:17:06.526Z,7.49
2019-05-13T21:19:39.191Z,7.47
2019-05-13T21:22:02.447Z,7.47
2019-05-13T21:24:29.196Z,7.41
2019-05-13T21:26:55.987Z,7.38
2019-05-13T21:29:22.955Z,7.36
2019-05-13T21:31:49.733Z,7.29
2019-05-13T21:34:16.496Z,7.26
2019-05-13T21:36:43.273Z,7.19
2019-05-13T21:39:12.212Z,7.11
2019-05-13T21:41:41.147Z,7.04
2019-05-13T21:44:07.735Z,6.98
2019-05-13T21:46:34.534Z,6.89
2019-05-13T21:49:01.319Z,6.84
2019-05-13T21:51:28.118Z,6.72
2019-05-13T21:53:56.006Z,6.73
2019-05-13T21:56:23.377Z,6.65
2019-05-13T21:58:52.009Z,6.55
2019-05-13T22:01:23.056Z,6.50
2019-05-13T22:03:47.862Z,6.43
2019-05-13T22:06:15.159Z,6.45
2019-05-13T22:08:42.012Z,6.39
2019-05-13T22:11:09.158Z,6.32
2019-05-13T22:13:36.150Z,6.32
2019-05-13T22:16:03.009Z,6.33
2019-05-13T22:18:31.423Z,6.27
2019-05-13T22:20:58.576Z,6.26
2019-05-13T22:23:25.332Z,6.24
2019-05-13T22:25:52.120Z,6.26
2019-05-13T22:28:19.011Z,6.28
2019-05-13T22:30:45.810Z,6.31
2019-05-13T22:33:12.695Z,6.38
2019-05-13T22:35:41.629Z,6.37
2019-05-13T22:38:08.931Z,6.33
2019-05-13T22:40:35.785Z,6.37
2019-05-13T22:43:02.677Z,6.33
2019-05-13T22:45:31.260Z,6.37
2019-05-13T22:47:58.124Z,6.39
2019-05-13T22:50:25.185Z,6.45
2019-05-13T22:52:52.357Z,6.58
2019-05-13T22:55:19.176Z,6.67
2019-05-13T22:57:46.336Z,6.60
2019-05-13T23:00:13.182Z,6.60
2019-05-13T23:02:42.181Z,6.62
2019-05-13T23:05:11.154Z,6.57
2019-05-13T23:07:38.003Z,6.48
2019-05-13T23:10:05.392Z,6.54
2019-05-13T23:12:32.605Z,6.48
2019-05-13T23:15:01.303Z,6.51
2019-05-13T23:17:28.432Z,6.48
2019-05-13T23:19:55.688Z,6.37
2019-05-13T23:22:22.592Z,6.30
2019-05-13T23:24:49.364Z,6.28
2019-05-13T23:27:16.271Z,6.18
2019-05-13T23:29:43.033Z,6.09
2019-05-13T23:32:12.033Z,6.07
2019-05-13T23:34:38.929Z,5.94
2019-05-13T23:37:05.790Z,5.85
2019-05-13T23:39:32.593Z,5.71
2019-05-13T23:42:01.432Z,5.66
2019-05-13T23:44:28.501Z,5.60
2019-05-13T23:46:55.400Z,5.56
2019-05-13T23:49:22.295Z,5.64
2019-05-13T23:51:49.273Z,5.62
2019-05-13T23:54:16.158Z,5.53
2019-05-13T23:56:43.073Z,5.46
2019-05-13T23:59:11.343Z,5.38
